Time;durP1;ratioP1;P1;durP2;ratioP2;P2;SDS_P1;SDS_P2;PMS_P1;PMS_P2;Temp;Humidity;BMP_temperature;BMP_pressure;BME280_temperature;BME280_humidity;BME280_pressure;Samples;Min_cycle;Max_cycle;Signal;HPM_P1;HPM_P2
2022/07/08 00:01:28;;;;;;;;;;;15.70;99.90;;;;;;5059834;28;20396;-75
2022/07/08 00:03:54;;;;;;;;;;;15.70;99.90;;;;;;5061183;28;19916;-75
2022/07/08 00:06:19;;;;;;;;;;;15.60;99.90;;;;;;5063722;28;19912;-75
2022/07/08 00:08:45;;;;;;;;;;;15.60;99.90;;;;;;5079457;28;19896;-74
2022/07/08 00:11:11;;;;;;;;;;;15.60;99.90;;;;;;5079701;28;19900;-74
2022/07/08 00:13:36;;;;;;;;;;;15.60;99.90;;;;;;5079746;28;19976;-74
2022/07/08 00:16:02;;;;;;;;;;;15.50;99.90;;;;;;5076182;28;19912;-75
2022/07/08 00:18:27;;;;;;;;;;;15.60;99.90;;;;;;5059802;28;19916;-75
2022/07/08 00:20:53;;;;;;;;;;;15.60;99.90;;;;;;5057749;28;19966;-75
2022/07/08 00:23:19;;;;;;;;;;;15.60;99.90;;;;;;5057955;28;19904;-75
2022/07/08 00:25:44;;;;;;;;;;;15.60;99.90;;;;;;5057302;28;19908;-74
2022/07/08 00:28:10;;;;;;;;;;;15.60;99.90;;;;;;5058687;28;19916;-75
2022/07/08 00:30:35;;;;;;;;;;;15.60;99.90;;;;;;5059153;28;19904;-75
2022/07/08 00:33:01;;;;;;;;;;;15.60;99.90;;;;;;5062298;28;19928;-75
2022/07/08 00:35:26;;;;;;;;;;;15.60;99.90;;;;;;5056499;28;19947;-75
2022/07/08 00:37:53;;;;;;;;;;;15.60;99.90;;;;;;5058903;28;19999;-75
2022/07/08 00:40:19;;;;;;;;;;;15.60;99.90;;;;;;5056760;28;19905;-74
2022/07/08 00:42:48;;;;;;;;;;;15.60;99.90;;;;;;5057269;28;20038;-74
2022/07/08 00:45:17;;;;;;;;;;;15.60;99.90;;;;;;5056983;28;19963;-74
2022/07/08 00:47:43;;;;;;;;;;;15.60;99.90;;;;;;5055158;28;19911;-75
2022/07/08 00:50:09;;;;;;;;;;;15.50;99.90;;;;;;5057291;28;19983;-75
2022/07/08 00:52:38;;;;;;;;;;;15.50;99.90;;;;;;5058693;28;19908;-75
2022/07/08 00:55:05;;;;;;;;;;;15.50;99.90;;;;;;5059114;28;20684;-76
2022/07/08 00:57:30;;;;;;;;;;;15.50;99.90;;;;;;5058174;28;19909;-75
2022/07/08 00:59:56;;;;;;;;;;;15.40;99.90;;;;;;5050274;28;19927;-75
2022/07/08 01:02:21;;;;;;;;;;;15.40;99.90;;;;;;5048240;28;19912;-75
2022/07/08 01:04:47;;;;;;;;;;;15.50;99.90;;;;;;5056785;28;19970;-75
2022/07/08 01:07:13;;;;;;;;;;;15.40;99.90;;;;;;5056925;28;20404;-75
2022/07/08 01:09:38;;;;;;;;;;;15.40;99.90;;;;;;5056603;28;19912;-75
2022/07/08 01:12:04;;;;;;;;;;;15.40;99.90;;;;;;5056747;28;19912;-75
2022/07/08 01:14:30;;;;;;;;;;;15.40;99.90;;;;;;5056517;28;19908;-75
2022/07/08 01:16:55;;;;;;;;;;;15.40;99.90;;;;;;5056328;28;19947;-75
2022/07/08 01:19:21;;;;;;;;;;;15.40;99.90;;;;;;5054851;28;19919;-75
2022/07/08 01:21:46;;;;;;;;;;;15.40;99.90;;;;;;5065560;28;19905;-75
2022/07/08 01:24:12;;;;;;;;;;;15.40;99.90;;;;;;5055027;28;19912;-75
2022/07/08 01:26:37;;;;;;;;;;;15.40;99.90;;;;;;5056307;28;20226;-75
2022/07/08 01:29:03;;;;;;;;;;;15.40;99.90;;;;;;5056304;28;19905;-75
2022/07/08 01:31:28;;;;;;;;;;;15.40;99.90;;;;;;5056747;28;19905;-75
2022/07/08 01:33:54;;;;;;;;;;;15.50;99.90;;;;;;5057888;28;19920;-75
2022/07/08 01:36:19;;;;;;;;;;;15.40;99.90;;;;;;5069788;28;19904;-75
2022/07/08 01:38:45;;;;;;;;;;;15.50;99.90;;;;;;5062274;28;20320;-75
2022/07/08 01:41:11;;;;;;;;;;;15.50;99.90;;;;;;5060351;28;20003;-75
2022/07/08 01:43:36;;;;;;;;;;;15.50;99.90;;;;;;5056733;28;19912;-75
2022/07/08 01:46:02;;;;;;;;;;;15.50;99.90;;;;;;5054465;28;19958;-75
2022/07/08 01:48:27;;;;;;;;;;;15.40;99.90;;;;;;5056019;28;19956;-75
2022/07/08 01:50:53;;;;;;;;;;;15.30;99.90;;;;;;5055975;28;19908;-75
2022/07/08 01:53:18;;;;;;;;;;;15.30;99.90;;;;;;5055570;28;19936;-75
2022/07/08 01:55:45;;;;;;;;;;;15.30;99.90;;;;;;5054162;28;19959;-75
2022/07/08 01:58:11;;;;;;;;;;;15.30;99.90;;;;;;5055314;28;19959;-75
2022/07/08 02:00:37;;;;;;;;;;;15.20;99.90;;;;;;5062346;28;19913;-75
2022/07/08 02:03:02;;;;;;;;;;;15.20;99.90;;;;;;5054865;28;19936;-76
2022/07/08 02:05:28;;;;;;;;;;;15.10;99.90;;;;;;5055723;28;19905;-76
2022/07/08 02:07:54;;;;;;;;;;;15.10;99.90;;;;;;5055581;28;19912;-76
2022/07/08 02:10:19;;;;;;;;;;;15.10;99.90;;;;;;5055500;28;19909;-76
2022/07/08 02:12:45;;;;;;;;;;;15.10;99.90;;;;;;5062395;28;19958;-76
2022/07/08 02:15:10;;;;;;;;;;;15.10;99.90;;;;;;5055173;28;20285;-75
2022/07/08 02:17:38;;;;;;;;;;;15.10;99.90;;;;;;5055182;28;19905;-76
2022/07/08 02:20:05;;;;;;;;;;;15.10;99.90;;;;;;5055492;28;20278;-76
2022/07/08 02:22:30;;;;;;;;;;;15.10;99.90;;;;;;5056853;28;19904;-76
2022/07/08 02:24:56;;;;;;;;;;;15.10;99.90;;;;;;5059193;28;19911;-76
2022/07/08 02:27:22;;;;;;;;;;;15.10;99.90;;;;;;5056807;28;20370;-75
2022/07/08 02:29:47;;;;;;;;;;;15.00;99.90;;;;;;5056388;28;19908;-75
2022/07/08 02:32:13;;;;;;;;;;;15.00;99.90;;;;;;5059964;28;19905;-75
2022/07/08 02:34:38;;;;;;;;;;;15.00;99.90;;;;;;5064290;28;19908;-75
2022/07/08 02:37:04;;;;;;;;;;;15.00;99.90;;;;;;5058099;28;19936;-75
2022/07/08 02:39:29;;;;;;;;;;;14.90;99.90;;;;;;5075244;28;19923;-75
2022/07/08 02:41:55;;;;;;;;;;;14.90;99.90;;;;;;5072982;28;19905;-76
2022/07/08 02:44:20;;;;;;;;;;;14.90;99.90;;;;;;5075514;28;19900;-76
2022/07/08 02:46:46;;;;;;;;;;;14.90;99.90;;;;;;5073793;28;19916;-76
2022/07/08 02:49:12;;;;;;;;;;;14.90;99.90;;;;;;5055630;28;19912;-76
2022/07/08 02:51:38;;;;;;;;;;;14.80;99.90;;;;;;5055449;28;19927;-76
2022/07/08 02:54:04;;;;;;;;;;;14.80;99.90;;;;;;5054389;28;19912;-76
2022/07/08 02:56:30;;;;;;;;;;;14.70;99.90;;;;;;5054977;28;19909;-75
2022/07/08 02:58:55;;;;;;;;;;;14.80;99.90;;;;;;5054414;28;20227;-75
2022/07/08 03:01:21;;;;;;;;;;;14.70;99.90;;;;;;5055495;28;19905;-75
2022/07/08 03:03:46;;;;;;;;;;;14.80;99.90;;;;;;5055224;28;19905;-75
2022/07/08 03:06:12;;;;;;;;;;;14.80;99.90;;;;;;5054746;28;19905;-75
2022/07/08 03:08:38;;;;;;;;;;;14.80;99.90;;;;;;5054718;28;19905;-75
2022/07/08 03:11:04;;;;;;;;;;;14.80;99.90;;;;;;5053814;28;19905;-75
2022/07/08 03:13:30;;;;;;;;;;;14.80;99.90;;;;;;5054521;28;19908;-75
2022/07/08 03:15:56;;;;;;;;;;;14.80;99.90;;;;;;5053838;28;19905;-75
2022/07/08 03:18:21;;;;;;;;;;;14.80;99.90;;;;;;5054026;28;19940;-75
2022/07/08 03:20:47;;;;;;;;;;;14.80;99.90;;;;;;5058586;22;19960;-73
2022/07/08 03:23:13;;;;;;;;;;;14.80;99.90;;;;;;5018807;28;19905;-73
2022/07/08 03:25:38;;;;;;;;;;;14.80;99.90;;;;;;5018848;28;19952;-73
2022/07/08 03:28:04;;;;;;;;;;;14.90;99.90;;;;;;5016463;28;20009;-73
2022/07/08 03:30:30;;;;;;;;;;;14.90;99.90;;;;;;5014726;28;19905;-72
2022/07/08 03:32:56;;;;;;;;;;;14.90;99.90;;;;;;5014298;28;19909;-73
2022/07/08 03:35:22;;;;;;;;;;;14.90;99.90;;;;;;5015786;28;19905;-73
2022/07/08 03:37:47;;;;;;;;;;;14.90;99.90;;;;;;5014224;28;19909;-73
2022/07/08 03:42:58;;;;;;;;;;;14.90;99.90;;;;;;5015628;28;19971;-72
2022/07/08 03:45:24;;;;;;;;;;;14.90;99.90;;;;;;5016363;28;19906;-72
2022/07/08 03:47:51;;;;;;;;;;;15.00;99.90;;;;;;5015387;28;19905;-72
2022/07/08 03:50:17;;;;;;;;;;;15.00;99.90;;;;;;5015051;28;19976;-73
2022/07/08 03:52:46;;;;;;;;;;;15.00;99.90;;;;;;5016810;28;19905;-73
2022/07/08 03:55:11;;;;;;;;;;;15.00;99.90;;;;;;5016392;28;19945;-72
2022/07/08 03:57:37;;;;;;;;;;;15.00;99.90;;;;;;5017226;28;19906;-72
2022/07/08 04:00:04;;;;;;;;;;;14.90;99.90;;;;;;5016841;28;20019;-72
2022/07/08 04:02:29;;;;;;;;;;;14.90;99.90;;;;;;5017028;28;19917;-72
2022/07/08 04:04:55;;;;;;;;;;;14.90;99.90;;;;;;5016066;28;19910;-73
2022/07/08 04:07:20;;;;;;;;;;;14.90;99.90;;;;;;5016245;28;19905;-72
2022/07/08 04:09:46;;;;;;;;;;;14.90;99.90;;;;;;5015598;28;19910;-72
2022/07/08 04:12:11;;;;;;;;;;;15.00;99.90;;;;;;5016009;28;19913;-73
2022/07/08 04:14:37;;;;;;;;;;;15.00;99.90;;;;;;5015998;28;19906;-73
2022/07/08 04:17:03;;;;;;;;;;;15.00;99.90;;;;;;5015614;28;19905;-73
2022/07/08 04:19:28;;;;;;;;;;;15.00;99.90;;;;;;5015791;28;19920;-73
2022/07/08 04:21:54;;;;;;;;;;;15.00;99.90;;;;;;5017315;28;19975;-72
2022/07/08 04:24:19;;;;;;;;;;;15.00;99.90;;;;;;5020941;28;19931;-72
2022/07/08 04:26:45;;;;;;;;;;;15.00;99.90;;;;;;5019633;28;19910;-72
2022/07/08 04:29:10;;;;;;;;;;;15.00;99.90;;;;;;5019837;28;19996;-73
2022/07/08 04:31:36;;;;;;;;;;;15.10;99.90;;;;;;5020628;28;19916;-73
2022/07/08 04:34:01;;;;;;;;;;;15.00;99.90;;;;;;5019908;28;19905;-73
2022/07/08 04:36:27;;;;;;;;;;;15.10;99.90;;;;;;5019265;28;19913;-75
2022/07/08 04:38:52;;;;;;;;;;;15.10;99.90;;;;;;5019690;28;19910;-72
2022/07/08 04:41:18;;;;;;;;;;;15.00;99.90;;;;;;5019562;28;20381;-72
2022/07/08 04:43:44;;;;;;;;;;;15.10;99.90;;;;;;5019313;28;19905;-72
2022/07/08 04:46:10;;;;;;;;;;;14.90;99.90;;;;;;5017430;28;19909;-73
2022/07/08 04:48:36;;;;;;;;;;;14.90;99.90;;;;;;5019126;28;19909;-72
2022/07/08 04:51:01;;;;;;;;;;;14.90;99.90;;;;;;5019214;28;19905;-72
2022/07/08 04:53:27;;;;;;;;;;;14.90;99.90;;;;;;5015736;28;19920;-72
2022/07/08 04:55:52;;;;;;;;;;;14.90;99.90;;;;;;5019600;28;19909;-72
2022/07/08 04:58:18;;;;;;;;;;;14.90;99.90;;;;;;5018895;28;19909;-72
2022/07/08 05:00:44;;;;;;;;;;;14.90;99.90;;;;;;5017759;28;19905;-72
2022/07/08 05:03:09;;;;;;;;;;;14.90;99.90;;;;;;5019798;28;20004;-72
2022/07/08 05:05:35;;;;;;;;;;;14.90;99.90;;;;;;5019352;28;19912;-72
2022/07/08 05:08:00;;;;;;;;;;;15.00;99.90;;;;;;5017489;28;20367;-72
2022/07/08 05:10:26;;;;;;;;;;;15.10;99.90;;;;;;5018995;28;19952;-73
2022/07/08 05:12:52;;;;;;;;;;;15.10;99.90;;;;;;5019037;28;19905;-72
2022/07/08 05:15:18;;;;;;;;;;;15.10;99.90;;;;;;5017441;28;19920;-72
2022/07/08 05:17:44;;;;;;;;;;;15.20;99.90;;;;;;5017329;28;19924;-72
2022/07/08 05:20:10;;;;;;;;;;;15.30;99.90;;;;;;5014910;28;19917;-72
2022/07/08 05:22:36;;;;;;;;;;;15.30;99.90;;;;;;5018693;28;19964;-72
2022/07/08 05:25:04;;;;;;;;;;;15.40;99.90;;;;;;5015267;28;20343;-73
2022/07/08 05:27:30;;;;;;;;;;;15.40;99.90;;;;;;5015310;28;19983;-73
2022/07/08 05:29:55;;;;;;;;;;;15.50;99.90;;;;;;5016092;28;19913;-73
2022/07/08 05:32:21;;;;;;;;;;;15.50;99.90;;;;;;5015550;28;19928;-72
2022/07/08 05:34:46;;;;;;;;;;;15.60;99.90;;;;;;5017311;28;20331;-73
2022/07/08 05:37:12;;;;;;;;;;;15.60;99.90;;;;;;5016827;28;19912;-73
2022/07/08 05:39:38;;;;;;;;;;;15.70;99.90;;;;;;5016887;28;19909;-72
2022/07/08 05:42:04;;;;;;;;;;;15.80;99.90;;;;;;5016860;28;20000;-72
2022/07/08 05:44:30;;;;;;;;;;;15.80;99.90;;;;;;5017712;28;19952;-72
2022/07/08 05:46:55;;;;;;;;;;;15.90;99.90;;;;;;5016979;28;19935;-73
2022/07/08 05:49:21;;;;;;;;;;;16.00;99.90;;;;;;5015384;28;19905;-72
2022/07/08 05:51:46;;;;;;;;;;;16.00;99.90;;;;;;5016363;28;19932;-73
2022/07/08 05:54:12;;;;;;;;;;;16.00;99.90;;;;;;5016166;28;19905;-72
2022/07/08 05:56:37;;;;;;;;;;;16.10;99.90;;;;;;5015812;28;19994;-72
2022/07/08 05:59:03;;;;;;;;;;;16.20;99.90;;;;;;5015018;28;19928;-74
2022/07/08 06:01:28;;;;;;;;;;;16.20;99.90;;;;;;5016263;28;19906;-73
2022/07/08 06:03:54;;;;;;;;;;;16.20;99.90;;;;;;5017031;28;19906;-73
2022/07/08 06:06:19;;;;;;;;;;;16.30;99.90;;;;;;5016144;28;19979;-73
2022/07/08 06:08:45;;;;;;;;;;;16.30;99.90;;;;;;5016868;28;19929;-72
2022/07/08 06:11:10;;;;;;;;;;;16.40;99.90;;;;;;5015931;28;19906;-73
2022/07/08 06:13:36;;;;;;;;;;;16.40;99.90;;;;;;5018007;28;20282;-73
2022/07/08 06:16:02;;;;;;;;;;;16.60;99.90;;;;;;5017736;28;19933;-73
2022/07/08 06:18:27;;;;;;;;;;;16.70;99.90;;;;;;5017528;28;19913;-73
2022/07/08 06:20:53;;;;;;;;;;;16.70;99.90;;;;;;5017715;28;19914;-73
2022/07/08 06:23:18;;;;;;;;;;;16.70;99.90;;;;;;5017011;28;19941;-72
2022/07/08 06:25:44;;;;;;;;;;;16.80;99.90;;;;;;5022617;28;19912;-72
2022/07/08 06:28:10;;;;;;;;;;;16.80;99.90;;;;;;5021711;28;20309;-72
2022/07/08 06:30:36;;;;;;;;;;;16.80;99.90;;;;;;5017843;28;20000;-71
2022/07/08 06:33:02;;;;;;;;;;;16.90;99.90;;;;;;5018300;28;19905;-72
2022/07/08 06:35:28;;;;;;;;;;;16.80;99.90;;;;;;5036590;28;19944;-72
2022/07/08 06:37:53;;;;;;;;;;;16.80;99.90;;;;;;5026600;28;19905;-72
2022/07/08 06:40:21;;;;;;;;;;;16.90;99.90;;;;;;5017535;28;19996;-72
2022/07/08 06:42:47;;;;;;;;;;;17.00;99.90;;;;;;5017665;28;19916;-72
2022/07/08 06:45:13;;;;;;;;;;;16.90;99.90;;;;;;5016800;28;19941;-72
2022/07/08 06:47:39;;;;;;;;;;;17.10;99.90;;;;;;5016441;28;20333;-72
2022/07/08 06:50:06;;;;;;;;;;;17.20;99.90;;;;;;5017656;28;19906;-71
2022/07/08 06:52:31;;;;;;;;;;;17.20;99.90;;;;;;5017083;28;19905;-71
2022/07/08 06:54:57;;;;;;;;;;;17.30;99.90;;;;;;5017467;28;19993;-72
2022/07/08 06:57:23;;;;;;;;;;;17.30;99.90;;;;;;5017728;28;19952;-71
2022/07/08 06:59:48;;;;;;;;;;;17.30;99.90;;;;;;5017613;28;19916;-72
2022/07/08 07:02:14;;;;;;;;;;;17.30;99.90;;;;;;5018022;28;19914;-72
2022/07/08 07:04:39;;;;;;;;;;;17.40;99.90;;;;;;5016900;28;19905;-71
2022/07/08 07:07:05;;;;;;;;;;;17.40;99.90;;;;;;5018872;28;20275;-72
2022/07/08 07:09:30;;;;;;;;;;;17.50;99.90;;;;;;5018056;28;19912;-72
2022/07/08 07:11:56;;;;;;;;;;;17.80;99.90;;;;;;5018561;28;19924;-71
2022/07/08 07:14:21;;;;;;;;;;;17.90;99.90;;;;;;5018795;28;19969;-72
2022/07/08 07:16:47;;;;;;;;;;;18.00;99.90;;;;;;5019675;28;19964;-71
2022/07/08 07:19:12;;;;;;;;;;;18.00;99.90;;;;;;5019023;28;19924;-75
2022/07/08 07:21:38;;;;;;;;;;;17.70;99.90;;;;;;5027271;28;19917;-75
2022/07/08 07:24:04;;;;;;;;;;;17.70;99.90;;;;;;5018220;28;20067;-75
2022/07/08 07:26:29;;;;;;;;;;;17.60;99.90;;;;;;5017443;28;19944;-75
2022/07/08 07:28:55;;;;;;;;;;;17.50;99.90;;;;;;5016932;28;20350;-75
2022/07/08 07:31:21;;;;;;;;;;;17.50;99.90;;;;;;5015280;28;19909;-75
2022/07/08 07:33:46;;;;;;;;;;;17.40;99.90;;;;;;5016626;28;19929;-75
2022/07/08 07:36:12;;;;;;;;;;;17.40;99.90;;;;;;5016730;28;20327;-75
2022/07/08 07:38:37;;;;;;;;;;;17.40;99.90;;;;;;5016223;28;20260;-75
2022/07/08 07:41:03;;;;;;;;;;;17.40;99.90;;;;;;5016934;28;19913;-75
2022/07/08 07:43:28;;;;;;;;;;;17.30;99.90;;;;;;5017157;28;19906;-76
2022/07/08 07:45:54;;;;;;;;;;;17.40;99.90;;;;;;5016932;28;19928;-74
2022/07/08 07:48:19;;;;;;;;;;;17.40;99.90;;;;;;5017421;28;19905;-75
2022/07/08 07:50:45;;;;;;;;;;;17.40;99.90;;;;;;5015245;28;19996;-75
2022/07/08 07:53:12;;;;;;;;;;;17.40;99.90;;;;;;5017428;28;19912;-75
2022/07/08 07:55:37;;;;;;;;;;;17.50;99.90;;;;;;5017607;28;19916;-75
2022/07/08 07:58:03;;;;;;;;;;;17.50;99.90;;;;;;5021040;28;19953;-72
2022/07/08 08:00:29;;;;;;;;;;;17.40;99.90;;;;;;5019546;28;19928;-72
2022/07/08 08:02:54;;;;;;;;;;;17.40;99.90;;;;;;5019747;28;19905;-72
2022/07/08 08:05:20;;;;;;;;;;;17.20;99.90;;;;;;5019016;28;19905;-72
2022/07/08 08:07:45;;;;;;;;;;;17.10;99.90;;;;;;5017914;28;20360;-74
2022/07/08 08:10:11;;;;;;;;;;;17.00;99.90;;;;;;5019492;28;19906;-72
2022/07/08 08:12:37;;;;;;;;;;;16.80;99.90;;;;;;5018012;28;19912;-72
2022/07/08 08:15:03;;;;;;;;;;;16.70;99.90;;;;;;5018065;28;19964;-71
2022/07/08 08:17:33;;;;;;;;;;;16.70;99.90;;;;;;5019659;28;19972;-71
2022/07/08 08:19:59;;;;;;;;;;;16.60;99.90;;;;;;5019042;28;20341;-72
2022/07/08 08:22:24;;;;;;;;;;;16.60;99.90;;;;;;5018925;28;19905;-72
2022/07/08 08:24:50;;;;;;;;;;;16.50;99.90;;;;;;5019266;28;19913;-72
2022/07/08 08:27:15;;;;;;;;;;;16.60;99.90;;;;;;5019984;28;19916;-72
2022/07/08 08:29:41;;;;;;;;;;;16.70;99.90;;;;;;5017495;28;19905;-72
2022/07/08 08:32:07;;;;;;;;;;;16.70;99.90;;;;;;5017642;28;20282;-72
2022/07/08 08:34:32;;;;;;;;;;;16.80;99.90;;;;;;5018790;28;19906;-72
2022/07/08 08:36:58;;;;;;;;;;;16.80;99.90;;;;;;5018468;28;20004;-71
2022/07/08 08:39:23;;;;;;;;;;;17.00;99.90;;;;;;5018435;28;19909;-72
2022/07/08 08:41:49;;;;;;;;;;;17.10;99.90;;;;;;5018715;28;19905;-72
2022/07/08 08:44:14;;;;;;;;;;;17.20;99.90;;;;;;5018314;28;19912;-72
2022/07/08 08:46:41;;;;;;;;;;;17.20;99.90;;;;;;5018794;28;19956;-71
2022/07/08 08:49:08;;;;;;;;;;;17.10;99.90;;;;;;5016783;28;19939;-71
2022/07/08 08:51:34;;;;;;;;;;;17.20;99.90;;;;;;5018481;28;19906;-71
2022/07/08 08:54:02;;;;;;;;;;;17.10;99.90;;;;;;5018523;28;19940;-71
2022/07/08 08:56:27;;;;;;;;;;;17.10;99.90;;;;;;5017915;28;20274;-71
2022/07/08 08:58:53;;;;;;;;;;;17.10;99.90;;;;;;5017909;28;19909;-72
2022/07/08 09:01:19;;;;;;;;;;;17.10;99.90;;;;;;5018565;28;20370;-71
2022/07/08 09:03:45;;;;;;;;;;;17.20;99.90;;;;;;5018471;28;19988;-72
2022/07/08 09:06:11;;;;;;;;;;;17.20;99.90;;;;;;5018711;28;19905;-72
2022/07/08 09:08:38;;;;;;;;;;;17.20;99.90;;;;;;5018235;28;20346;-72
2022/07/08 09:11:04;;;;;;;;;;;17.20;99.90;;;;;;5019217;28;20322;-72
2022/07/08 09:13:30;;;;;;;;;;;17.10;99.90;;;;;;5018881;28;19905;-72
2022/07/08 09:15:59;;;;;;;;;;;17.10;99.90;;;;;;5018776;28;19956;-72
2022/07/08 09:18:28;;;;;;;;;;;17.30;99.90;;;;;;5018491;28;20367;-71
2022/07/08 09:20:55;;;;;;;;;;;17.40;99.90;;;;;;5019672;28;20286;-72
2022/07/08 09:23:22;;;;;;;;;;;17.40;99.90;;;;;;5018659;28;20059;-72
2022/07/08 09:25:48;;;;;;;;;;;17.50;99.90;;;;;;5018593;28;19913;-72
2022/07/08 09:28:29;;;;;;;;;;;17.50;99.90;;;;;;5017814;28;20351;-72
2022/07/08 09:30:56;;;;;;;;;;;17.40;99.90;;;;;;5018454;28;20290;-72
2022/07/08 09:33:21;;;;;;;;;;;17.40;99.90;;;;;;5017676;28;19912;-71
2022/07/08 09:35:50;;;;;;;;;;;17.50;99.90;;;;;;5017876;28;19905;-72
2022/07/08 09:38:17;;;;;;;;;;;17.50;99.90;;;;;;5017267;28;20341;-72
2022/07/08 09:40:52;;;;;;;;;;;17.40;99.90;;;;;;5015832;28;19992;-72
2022/07/08 09:43:18;;;;;;;;;;;17.40;99.90;;;;;;5017425;28;19948;-72
2022/07/08 09:45:43;;;;;;;;;;;17.40;99.90;;;;;;5016179;28;19913;-72
2022/07/08 09:48:09;;;;;;;;;;;17.30;99.90;;;;;;5018162;28;19913;-72
2022/07/08 09:50:37;;;;;;;;;;;17.30;99.90;;;;;;5017570;28;19905;-72
2022/07/08 09:53:18;;;;;;;;;;;17.40;99.90;;;;;;5015791;28;19906;-72
2022/07/08 09:55:53;;;;;;;;;;;17.50;99.90;;;;;;5031921;28;20263;-73
2022/07/08 09:58:21;;;;;;;;;;;17.30;99.90;;;;;;5016814;28;19917;-72
2022/07/08 10:00:47;;;;;;;;;;;17.40;99.90;;;;;;5016412;28;19909;-72
2022/07/08 10:03:12;;;;;;;;;;;17.40;99.90;;;;;;5016737;28;20444;-72
2022/07/08 10:05:39;;;;;;;;;;;17.50;99.90;;;;;;5016891;28;20016;-73
2022/07/08 10:08:05;;;;;;;;;;;17.50;99.90;;;;;;5016759;28;19941;-72
2022/07/08 10:10:31;;;;;;;;;;;17.60;99.90;;;;;;5016416;28;20012;-72
2022/07/08 10:12:57;;;;;;;;;;;17.60;99.90;;;;;;5016870;28;19905;-72
2022/07/08 10:15:27;;;;;;;;;;;17.60;99.90;;;;;;5016444;28;19944;-72
2022/07/08 10:17:54;;;;;;;;;;;17.70;99.90;;;;;;5015770;28;19905;-73
2022/07/08 10:20:21;;;;;;;;;;;17.70;99.90;;;;;;5017145;28;19964;-72
2022/07/08 10:22:48;;;;;;;;;;;17.70;99.90;;;;;;5015241;28;20394;-72
2022/07/08 10:25:13;;;;;;;;;;;17.90;99.90;;;;;;5016730;28;20330;-72
2022/07/08 10:27:39;;;;;;;;;;;17.90;99.90;;;;;;5013295;28;19931;-72
2022/07/08 10:30:11;;;;;;;;;;;18.10;99.90;;;;;;4998194;28;19905;-72
2022/07/08 10:32:37;;;;;;;;;;;18.20;99.90;;;;;;5012937;28;19952;-72
2022/07/08 10:35:08;;;;;;;;;;;18.20;99.90;;;;;;5007253;28;20279;-73
2022/07/08 10:37:46;;;;;;;;;;;18.30;99.90;;;;;;5017283;28;19945;-72
2022/07/08 10:40:12;;;;;;;;;;;18.50;99.90;;;;;;5016367;28;19945;-71
2022/07/08 10:42:41;;;;;;;;;;;18.60;99.90;;;;;;5016897;28;19906;-71
2022/07/08 10:45:14;;;;;;;;;;;18.80;99.90;;;;;;5016612;28;19916;-72
2022/07/08 10:47:39;;;;;;;;;;;18.80;99.90;;;;;;5017101;28;19906;-71
2022/07/08 10:50:08;;;;;;;;;;;19.00;99.90;;;;;;5016804;28;19916;-71
2022/07/08 10:52:41;;;;;;;;;;;19.00;99.90;;;;;;5014943;28;19916;-72
2022/07/08 10:55:07;;;;;;;;;;;19.20;99.90;;;;;;5016219;28;19906;-72
2022/07/08 10:57:35;;;;;;;;;;;19.10;99.90;;;;;;5016730;28;19912;-73
2022/07/08 11:00:02;;;;;;;;;;;19.20;99.90;;;;;;5016052;28;19909;-72
2022/07/08 11:02:27;;;;;;;;;;;19.10;99.90;;;;;;5016873;28;19917;-72
2022/07/08 11:04:53;;;;;;;;;;;19.10;99.90;;;;;;5014274;28;20000;-71
2022/07/08 11:07:28;;;;;;;;;;;19.20;99.90;;;;;;5009187;28;19905;-72
2022/07/08 11:10:06;;;;;;;;;;;19.30;99.90;;;;;;5020379;28;19909;-71
2022/07/08 11:12:35;;;;;;;;;;;19.30;99.90;;;;;;5020375;28;19909;-72
2022/07/08 11:15:01;;;;;;;;;;;19.30;99.90;;;;;;5019013;28;19906;-72
2022/07/08 11:17:27;;;;;;;;;;;19.20;99.90;;;;;;5019840;28;19963;-72
2022/07/08 11:19:54;;;;;;;;;;;19.10;99.90;;;;;;5017863;28;19917;-72
2022/07/08 11:22:21;;;;;;;;;;;19.00;99.90;;;;;;5015825;28;20422;-72
2022/07/08 11:24:47;;;;;;;;;;;19.00;99.90;;;;;;5010208;28;19947;-72
2022/07/08 11:27:12;;;;;;;;;;;19.00;99.90;;;;;;5007208;28;19910;-72
2022/07/08 11:29:45;;;;;;;;;;;18.90;99.90;;;;;;5009693;28;19912;-72
2022/07/08 11:32:11;;;;;;;;;;;18.80;99.90;;;;;;5020337;28;19963;-73
2022/07/08 11:34:36;;;;;;;;;;;18.80;99.90;;;;;;5016242;28;19913;-72
2022/07/08 11:37:02;;;;;;;;;;;18.90;99.90;;;;;;5015417;28;20386;-72
2022/07/08 11:39:28;;;;;;;;;;;18.90;99.90;;;;;;5015183;28;19932;-72
2022/07/08 11:41:54;;;;;;;;;;;18.90;99.90;;;;;;5013230;28;19917;-72
2022/07/08 11:44:20;;;;;;;;;;;19.00;99.90;;;;;;5014590;28;19964;-72
2022/07/08 11:46:47;;;;;;;;;;;19.10;99.90;;;;;;5015033;28;20331;-72
2022/07/08 11:49:16;;;;;;;;;;;19.20;99.90;;;;;;5014890;28;19906;-72
2022/07/08 11:51:48;;;;;;;;;;;19.20;99.90;;;;;;5015634;28;19975;-72
2022/07/08 11:54:14;;;;;;;;;;;19.10;99.90;;;;;;5015075;28;19910;-72
2022/07/08 11:56:40;;;;;;;;;;;19.00;99.90;;;;;;5015777;28;20001;-72
2022/07/08 11:59:05;;;;;;;;;;;18.90;99.90;;;;;;5009729;28;19917;-72
2022/07/08 12:01:31;;;;;;;;;;;19.00;99.90;;;;;;5004274;28;19906;-72
2022/07/08 12:03:57;;;;;;;;;;;18.80;99.90;;;;;;5007850;28;20011;-72
2022/07/08 12:06:25;;;;;;;;;;;18.70;99.90;;;;;;5020301;28;20277;-72
2022/07/08 12:08:50;;;;;;;;;;;18.70;99.90;;;;;;5014831;28;20016;-72
2022/07/08 12:11:18;;;;;;;;;;;18.70;99.90;;;;;;5013822;28;20394;-72
2022/07/08 12:13:47;;;;;;;;;;;18.70;99.90;;;;;;5019633;28;19959;-72
2022/07/08 12:16:27;;;;;;;;;;;18.70;99.90;;;;;;5017909;28;19960;-72
2022/07/08 12:18:52;;;;;;;;;;;18.70;99.90;;;;;;5014687;28;19972;-73
2022/07/08 12:21:21;;;;;;;;;;;18.60;99.90;;;;;;5014177;28;19929;-72
2022/07/08 12:23:57;;;;;;;;;;;18.70;99.90;;;;;;5014052;28;19906;-72
2022/07/08 12:26:23;;;;;;;;;;;18.70;99.90;;;;;;5015027;28;20047;-72
2022/07/08 12:28:48;;;;;;;;;;;18.70;99.90;;;;;;5003435;28;19984;-72
2022/07/08 12:31:33;;;;;;;;;;;18.60;99.90;;;;;;5029954;28;19916;-73
2022/07/08 12:34:02;;;;;;;;;;;18.60;99.90;;;;;;5019983;28;19909;-72
2022/07/08 12:36:28;;;;;;;;;;;18.50;99.90;;;;;;5013758;28;19909;-72
2022/07/08 12:38:57;;;;;;;;;;;18.50;99.90;;;;;;4996062;28;20267;-73
2022/07/08 12:41:22;;;;;;;;;;;18.50;99.90;;;;;;4995261;28;19937;-73
2022/07/08 12:43:48;;;;;;;;;;;18.60;99.90;;;;;;4996545;28;19906;-73
2022/07/08 12:46:14;;;;;;;;;;;18.50;99.90;;;;;;4999069;28;19929;-73
2022/07/08 12:48:40;;;;;;;;;;;18.50;99.90;;;;;;4997661;28;19920;-73
2022/07/08 12:51:08;;;;;;;;;;;18.50;99.90;;;;;;5007960;28;19913;-73
2022/07/08 12:53:33;;;;;;;;;;;18.40;99.90;;;;;;5018912;28;20339;-73
2022/07/08 12:55:59;;;;;;;;;;;18.40;99.90;;;;;;5018051;28;19905;-73
2022/07/08 12:58:25;;;;;;;;;;;18.40;99.90;;;;;;5018789;28;19909;-73
2022/07/08 13:00:50;;;;;;;;;;;18.30;99.90;;;;;;5018896;28;19906;-73
2022/07/08 13:03:16;;;;;;;;;;;18.40;99.90;;;;;;5018624;28;19909;-74
2022/07/08 13:05:42;;;;;;;;;;;18.40;99.90;;;;;;5018745;28;20383;-73
2022/07/08 13:08:08;;;;;;;;;;;18.30;99.90;;;;;;5018824;28;20351;-73
2022/07/08 13:10:34;;;;;;;;;;;18.40;99.90;;;;;;5018185;28;19905;-73
2022/07/08 13:13:05;;;;;;;;;;;18.40;99.90;;;;;;5018442;28;19971;-73
2022/07/08 13:15:31;;;;;;;;;;;18.50;99.90;;;;;;5018107;28;19906;-73
2022/07/08 13:17:56;;;;;;;;;;;18.50;99.90;;;;;;5020571;28;19905;-73
2022/07/08 13:20:22;;;;;;;;;;;18.60;99.90;;;;;;5016584;28;19939;-73
2022/07/08 13:22:47;;;;;;;;;;;18.60;99.90;;;;;;4999116;28;19963;-73
2022/07/08 13:25:13;;;;;;;;;;;18.60;99.90;;;;;;4999435;28;19905;-73
2022/07/08 13:27:38;;;;;;;;;;;18.70;99.90;;;;;;4998082;28;20274;-72
2022/07/08 13:30:04;;;;;;;;;;;18.80;99.90;;;;;;4999733;28;19960;-73
2022/07/08 13:32:30;;;;;;;;;;;18.90;99.90;;;;;;5000229;28;20360;-73
2022/07/08 13:34:55;;;;;;;;;;;19.00;99.90;;;;;;5000248;28;20283;-73
2022/07/08 13:37:21;;;;;;;;;;;19.10;99.90;;;;;;5000269;28;20287;-73
2022/07/08 13:39:46;;;;;;;;;;;19.20;99.90;;;;;;4999005;28;19917;-72
2022/07/08 13:42:12;;;;;;;;;;;19.20;99.90;;;;;;4999517;28;19906;-72
2022/07/08 13:44:37;;;;;;;;;;;19.50;99.90;;;;;;5000832;28;20347;-73
2022/07/08 13:47:03;;;;;;;;;;;19.60;99.90;;;;;;5000648;28;19992;-73
2022/07/08 13:49:28;;;;;;;;;;;19.80;99.90;;;;;;5001768;28;19973;-73
2022/07/08 13:51:54;;;;;;;;;;;19.90;99.90;;;;;;5005976;28;19906;-73
2022/07/08 13:54:20;;;;;;;;;;;20.20;99.90;;;;;;5005122;28;19912;-73
2022/07/08 13:56:47;;;;;;;;;;;20.50;99.90;;;;;;5000038;28;19952;-73
2022/07/08 13:59:13;;;;;;;;;;;20.60;99.90;;;;;;5011907;28;19960;-72
2022/07/08 14:01:38;;;;;;;;;;;20.70;99.90;;;;;;5020040;28;19909;-73
2022/07/08 14:04:04;;;;;;;;;;;20.70;99.90;;;;;;5019999;28;19909;-73
2022/07/08 14:06:30;;;;;;;;;;;20.50;99.90;;;;;;5018439;28;19905;-73
2022/07/08 14:08:55;;;;;;;;;;;20.50;99.90;;;;;;5023053;28;20044;-72
2022/07/08 14:11:21;;;;;;;;;;;20.40;99.90;;;;;;5024404;28;19948;-72
2022/07/08 14:13:46;;;;;;;;;;;20.30;99.90;;;;;;5025496;28;20374;-73